CPA730 WMKK-VHHH
Flight info
| Callsign | CPA730 |
|---|---|
| Flight time | 3h 25m |
| Altitude | 35000 |
| Route | KIMAT1D KIMAT Y344 VPK L629 DOLOX M771 DUDIS/K0865F350 M771 DOSUT/N0464F350 M771 DULOP Q1 CARSO V551 CYBER V542 BETTY |
| Aircraft | A21N/M-SDE2E3FGHIRWXY/LB1 |
Departure
| Time | 2026-05-04 15:39 |
|---|---|
| Airport | Kuala Lumpur International Airport (WMKK) |
Arrival
| Time | 2026-05-04 19:04 |
|---|---|
| Airport | Hong Kong International Airport (VHHH) |
| Time | Latitude | Longitude | Altitude | Speed | Heading |
|---|---|---|---|---|---|
| 2026-05-04 14:59 | 2.74951 | 101.71330 | 78 ft | 0 kts | 236° |
| 2026-05-04 15:30 | 2.74966 | 101.71355 | 78 ft | 4 kts | 244° |
| 2026-05-04 15:30 | 2.75024 | 101.71387 | 78 ft | 4 kts | 157° |
| 2026-05-04 15:31 | 2.75050 | 101.71371 | 69 ft | 0 kts | 146° |
| 2026-05-04 15:34 | 2.75035 | 101.71442 | 74 ft | 9 kts | 60° |
| 2026-05-04 15:35 | 2.75120 | 101.71570 | 71 ft | 12 kts | 56° |
| 2026-05-04 15:35 | 2.75169 | 101.71644 | 73 ft | 13 kts | 56° |
| 2026-05-04 15:35 | 2.75193 | 101.71729 | 74 ft | 14 kts | 124° |
| 2026-05-04 15:36 | 2.75022 | 101.71852 | 84 ft | 16 kts | 145° |
| 2026-05-04 15:36 | 2.74925 | 101.71917 | 85 ft | 17 kts | 146° |
| 2026-05-04 15:36 | 2.74823 | 101.71986 | 86 ft | 18 kts | 146° |
| 2026-05-04 15:37 | 2.74767 | 101.72024 | 84 ft | 0 kts | 146° |
| 2026-05-04 15:37 | 2.74765 | 101.72029 | 84 ft | 2 kts | 117° |
| 2026-05-04 15:37 | 2.74760 | 101.72060 | 86 ft | 6 kts | 83° |
| 2026-05-04 15:37 | 2.74779 | 101.72103 | 84 ft | 7 kts | 55° |
| 2026-05-04 15:38 | 2.74812 | 101.72147 | 83 ft | 8 kts | 53° |
| 2026-05-04 15:38 | 2.74859 | 101.72182 | 86 ft | 9 kts | 3° |
| 2026-05-04 15:38 | 2.74919 | 101.72149 | 83 ft | 11 kts | 324° |
| 2026-05-04 15:38 | 2.75158 | 101.71995 | 85 ft | 79 kts | 325° |
| 2026-05-04 15:39 | 2.75812 | 101.71549 | 82 ft | 146 kts | 327° |
| 2026-05-04 15:39 | 2.76780 | 101.70890 | 289 ft | 177 kts | 325° |
| 2026-05-04 15:39 | 2.78777 | 101.69443 | 1578 ft | 181 kts | 325° |
| 2026-05-04 15:40 | 2.79912 | 101.68744 | 1970 ft | 202 kts | 332° |
| 2026-05-04 15:40 | 2.81265 | 101.68212 | 2431 ft | 217 kts | 342° |
| 2026-05-04 15:40 | 2.82757 | 101.67735 | 2850 ft | 236 kts | 342° |
| 2026-05-04 15:40 | 2.84388 | 101.67194 | 3173 ft | 257 kts | 342° |
| 2026-05-04 15:41 | 2.86122 | 101.66608 | 3725 ft | 268 kts | 342° |
| 2026-05-04 15:41 | 2.87899 | 101.65999 | 4384 ft | 272 kts | 341° |
| 2026-05-04 15:41 | 2.89705 | 101.65392 | 4950 ft | 275 kts | 345° |
| 2026-05-04 15:41 | 2.91602 | 101.65190 | 5628 ft | 277 kts | 8° |
| 2026-05-04 15:42 | 2.93419 | 101.65808 | 6326 ft | 278 kts | 28° |
| 2026-05-04 15:42 | 2.95097 | 101.66796 | 6990 ft | 283 kts | 33° |
| 2026-05-04 15:42 | 2.96541 | 101.68131 | 7615 ft | 286 kts | 55° |
| 2026-05-04 15:42 | 2.97368 | 101.69911 | 8282 ft | 288 kts | 72° |
| 2026-05-04 15:43 | 2.97902 | 101.71848 | 8941 ft | 290 kts | 75° |
| 2026-05-04 15:43 | 2.98429 | 101.73839 | 9570 ft | 294 kts | 74° |
| 2026-05-04 15:43 | 2.98965 | 101.75797 | 10136 ft | 299 kts | 74° |
| 2026-05-04 15:43 | 2.99541 | 101.77850 | 10441 ft | 315 kts | 73° |
| 2026-05-04 15:44 | 3.00160 | 101.80018 | 10690 ft | 332 kts | 73° |
| 2026-05-04 15:44 | 3.00815 | 101.82295 | 10915 ft | 349 kts | 73° |
| 2026-05-04 15:44 | 3.01508 | 101.84677 | 11142 ft | 364 kts | 73° |
| 2026-05-04 15:44 | 3.02230 | 101.87156 | 11345 ft | 379 kts | 73° |
| 2026-05-04 15:45 | 3.02983 | 101.89733 | 11547 ft | 392 kts | 73° |
| 2026-05-04 15:45 | 3.03762 | 101.92383 | 11878 ft | 399 kts | 73° |
| 2026-05-04 15:45 | 3.04546 | 101.95058 | 12352 ft | 402 kts | 73° |
| 2026-05-04 15:45 | 3.05330 | 101.97751 | 12814 ft | 404 kts | 73° |
| 2026-05-04 15:46 | 3.06118 | 102.00460 | 13273 ft | 406 kts | 74° |
| 2026-05-04 15:46 | 3.06905 | 102.03179 | 13689 ft | 409 kts | 74° |
| 2026-05-04 15:46 | 3.07699 | 102.05919 | 14100 ft | 412 kts | 74° |
| 2026-05-04 15:46 | 3.08501 | 102.08680 | 14495 ft | 414 kts | 74° |
| 2026-05-04 15:47 | 3.09307 | 102.11448 | 14887 ft | 416 kts | 74° |
| 2026-05-04 15:47 | 3.10120 | 102.14232 | 15282 ft | 418 kts | 74° |
| 2026-05-04 15:47 | 3.10937 | 102.17034 | 15666 ft | 420 kts | 74° |
| 2026-05-04 15:47 | 3.11757 | 102.19849 | 16049 ft | 422 kts | 74° |
| 2026-05-04 15:48 | 3.12582 | 102.22676 | 16417 ft | 424 kts | 74° |
| 2026-05-04 15:48 | 3.13410 | 102.25514 | 16757 ft | 426 kts | 74° |
| 2026-05-04 15:48 | 3.15084 | 102.31230 | 17438 ft | 430 kts | 74° |
| 2026-05-04 15:49 | 3.15919 | 102.34105 | 17784 ft | 432 kts | 75° |
| 2026-05-04 15:49 | 3.16618 | 102.37035 | 18124 ft | 433 kts | 78° |
| 2026-05-04 15:49 | 3.17243 | 102.39990 | 18457 ft | 435 kts | 78° |
| 2026-05-04 15:49 | 3.17865 | 102.42962 | 18763 ft | 437 kts | 78° |
| 2026-05-04 15:50 | 3.18491 | 102.45944 | 19065 ft | 440 kts | 78° |
| 2026-05-04 15:50 | 3.19125 | 102.48942 | 19365 ft | 442 kts | 78° |
| 2026-05-04 15:50 | 3.19762 | 102.51961 | 19644 ft | 444 kts | 78° |
| 2026-05-04 15:50 | 3.20400 | 102.54987 | 19934 ft | 446 kts | 78° |
| 2026-05-04 15:51 | 3.21043 | 102.58033 | 20233 ft | 448 kts | 78° |
| 2026-05-04 15:51 | 3.21689 | 102.61089 | 20528 ft | 450 kts | 78° |
| 2026-05-04 15:51 | 3.22341 | 102.64163 | 20818 ft | 453 kts | 78° |
| 2026-05-04 15:51 | 3.22993 | 102.67252 | 21115 ft | 455 kts | 78° |
| 2026-05-04 15:52 | 3.23646 | 102.70358 | 21408 ft | 458 kts | 78° |
| 2026-05-04 15:52 | 3.24305 | 102.73480 | 21714 ft | 460 kts | 78° |
| 2026-05-04 15:52 | 3.24970 | 102.76616 | 22041 ft | 462 kts | 78° |
| 2026-05-04 15:52 | 3.25646 | 102.79773 | 22359 ft | 465 kts | 78° |
| 2026-05-04 15:53 | 3.26322 | 102.82939 | 22651 ft | 467 kts | 78° |
| 2026-05-04 15:53 | 3.26996 | 102.86117 | 22923 ft | 469 kts | 78° |
| 2026-05-04 15:53 | 3.27673 | 102.89322 | 23166 ft | 471 kts | 78° |
| 2026-05-04 15:53 | 3.28351 | 102.92540 | 23386 ft | 473 kts | 78° |
| 2026-05-04 15:54 | 3.29021 | 102.95721 | 23611 ft | 475 kts | 78° |
| 2026-05-04 15:54 | 3.29713 | 102.99004 | 23831 ft | 476 kts | 78° |
| 2026-05-04 15:54 | 3.30391 | 103.02249 | 24013 ft | 478 kts | 78° |
| 2026-05-04 15:54 | 3.31076 | 103.05504 | 24186 ft | 479 kts | 78° |
| 2026-05-04 15:55 | 3.31754 | 103.08729 | 24377 ft | 480 kts | 78° |
| 2026-05-04 15:55 | 3.32446 | 103.12037 | 24615 ft | 480 kts | 78° |
| 2026-05-04 15:55 | 3.33127 | 103.15259 | 24871 ft | 479 kts | 78° |
| 2026-05-04 15:55 | 3.33816 | 103.18515 | 25133 ft | 478 kts | 78° |
| 2026-05-04 15:56 | 3.34501 | 103.21766 | 25355 ft | 478 kts | 78° |
| 2026-05-04 15:56 | 3.35186 | 103.25024 | 25604 ft | 477 kts | 78° |
| 2026-05-04 15:56 | 3.35867 | 103.28274 | 25842 ft | 477 kts | 78° |
| 2026-05-04 15:56 | 3.36551 | 103.31518 | 26093 ft | 476 kts | 78° |
| 2026-05-04 15:57 | 3.37236 | 103.34753 | 26336 ft | 476 kts | 78° |
| 2026-05-04 15:57 | 3.37916 | 103.37994 | 26587 ft | 475 kts | 78° |
| 2026-05-04 15:57 | 3.38797 | 103.41172 | 26812 ft | 475 kts | 70° |
| 2026-05-04 15:57 | 3.40240 | 103.44142 | 27042 ft | 476 kts | 59° |
| 2026-05-04 15:58 | 3.42111 | 103.46877 | 27273 ft | 475 kts | 55° |
| 2026-05-04 15:58 | 3.44042 | 103.49553 | 27516 ft | 474 kts | 55° |
| 2026-05-04 15:58 | 3.45976 | 103.52231 | 27739 ft | 474 kts | 55° |
| 2026-05-04 15:58 | 3.47899 | 103.54906 | 27964 ft | 474 kts | 55° |
| 2026-05-04 15:59 | 3.49811 | 103.57587 | 28189 ft | 473 kts | 55° |
| 2026-05-04 15:59 | 3.51718 | 103.60268 | 28418 ft | 473 kts | 56° |
| 2026-05-04 15:59 | 3.53624 | 103.62949 | 28654 ft | 473 kts | 55° |
| 2026-05-04 15:59 | 3.55537 | 103.65629 | 28867 ft | 472 kts | 55° |
| 2026-05-04 16:00 | 3.57444 | 103.68305 | 29084 ft | 472 kts | 55° |
| 2026-05-04 16:00 | 3.59353 | 103.70984 | 29330 ft | 472 kts | 55° |
| 2026-05-04 16:00 | 3.61260 | 103.73659 | 29552 ft | 471 kts | 55° |
| 2026-05-04 16:00 | 3.63181 | 103.76311 | 29784 ft | 471 kts | 55° |
| 2026-05-04 16:01 | 3.65116 | 103.78962 | 29997 ft | 471 kts | 55° |
| 2026-05-04 16:01 | 3.67042 | 103.81611 | 30230 ft | 471 kts | 55° |
| 2026-05-04 16:01 | 3.68968 | 103.84259 | 30457 ft | 470 kts | 55° |
| 2026-05-04 16:01 | 3.70890 | 103.86900 | 30682 ft | 469 kts | 55° |
| 2026-05-04 16:02 | 3.72814 | 103.89544 | 30900 ft | 469 kts | 55° |
| 2026-05-04 16:02 | 3.74727 | 103.92182 | 31133 ft | 469 kts | 55° |
| 2026-05-04 16:02 | 3.78559 | 103.97463 | 31602 ft | 468 kts | 55° |
| 2026-05-04 16:03 | 3.80467 | 104.00094 | 31817 ft | 467 kts | 55° |
| 2026-05-04 16:03 | 3.82376 | 104.02720 | 32013 ft | 466 kts | 55° |
| 2026-05-04 16:03 | 3.84254 | 104.05311 | 32214 ft | 466 kts | 55° |
| 2026-05-04 16:03 | 3.86155 | 104.07935 | 32424 ft | 465 kts | 55° |
| 2026-05-04 16:04 | 3.88057 | 104.10556 | 32632 ft | 465 kts | 54° |
| 2026-05-04 16:04 | 3.91875 | 104.15772 | 33006 ft | 464 kts | 54° |
| 2026-05-04 16:04 | 3.93780 | 104.18370 | 33177 ft | 463 kts | 54° |
| 2026-05-04 16:05 | 3.95686 | 104.20978 | 33332 ft | 463 kts | 54° |
| 2026-05-04 16:05 | 3.97587 | 104.23580 | 33499 ft | 463 kts | 54° |
| 2026-05-04 16:05 | 4.01370 | 104.28788 | 33833 ft | 462 kts | 54° |
| 2026-05-04 16:06 | 4.03262 | 104.31387 | 33984 ft | 461 kts | 54° |
| 2026-05-04 16:06 | 4.08318 | 104.38322 | 34358 ft | 460 kts | 54° |
| 2026-05-04 16:07 | 4.10815 | 104.41747 | 34547 ft | 460 kts | 54° |
| 2026-05-04 16:07 | 4.16473 | 104.49486 | 34930 ft | 459 kts | 54° |
| 2026-05-04 16:08 | 4.18354 | 104.52065 | 34953 ft | 458 kts | 54° |
| 2026-05-04 16:09 | 4.27742 | 104.64937 | 34911 ft | 458 kts | 54° |
| 2026-05-04 16:10 | 4.35261 | 104.75242 | 34910 ft | 458 kts | 54° |
| 2026-05-04 16:11 | 4.42151 | 104.84667 | 34910 ft | 458 kts | 54° |
| 2026-05-04 16:12 | 4.53455 | 105.00130 | 34910 ft | 458 kts | 54° |
| 2026-05-04 16:13 | 4.60992 | 105.10451 | 34910 ft | 459 kts | 54° |
| 2026-05-04 16:14 | 4.68528 | 105.20768 | 34910 ft | 459 kts | 54° |
| 2026-05-04 16:16 | 4.77944 | 105.33662 | 34910 ft | 458 kts | 54° |
| 2026-05-04 16:16 | 4.84644 | 105.40366 | 34913 ft | 464 kts | 34° |
| 2026-05-04 16:17 | 4.90073 | 105.43822 | 34910 ft | 463 kts | 33° |
| 2026-05-04 16:18 | 5.00887 | 105.50819 | 34910 ft | 461 kts | 34° |
| 2026-05-04 16:19 | 5.14365 | 105.59601 | 34909 ft | 461 kts | 34° |
| 2026-05-04 16:20 | 5.27853 | 105.68393 | 34909 ft | 461 kts | 34° |
| 2026-05-04 16:22 | 5.41348 | 105.77188 | 34910 ft | 461 kts | 34° |
| 2026-05-04 16:23 | 5.57502 | 105.87723 | 34911 ft | 464 kts | 34° |
| 2026-05-04 16:25 | 5.73705 | 105.98299 | 34910 ft | 462 kts | 34° |
| 2026-05-04 16:26 | 5.92598 | 106.10643 | 34909 ft | 462 kts | 34° |
| 2026-05-04 16:28 | 6.06092 | 106.19460 | 34910 ft | 462 kts | 34° |
| 2026-05-04 16:29 | 6.24990 | 106.31823 | 34920 ft | 464 kts | 34° |
| 2026-05-04 16:31 | 6.38493 | 106.40662 | 34921 ft | 464 kts | 34° |
| 2026-05-04 16:32 | 6.54685 | 106.51275 | 34920 ft | 463 kts | 34° |
| 2026-05-04 16:33 | 6.65494 | 106.58359 | 34920 ft | 463 kts | 34° |
| 2026-05-04 16:34 | 6.73598 | 106.63671 | 34920 ft | 462 kts | 34° |
| 2026-05-04 16:35 | 6.89771 | 106.74281 | 34931 ft | 465 kts | 34° |
| 2026-05-04 16:36 | 6.97877 | 106.79604 | 34930 ft | 463 kts | 34° |
| 2026-05-04 16:37 | 7.05972 | 106.84929 | 34929 ft | 463 kts | 34° |
| 2026-05-04 16:38 | 7.16779 | 106.92051 | 34931 ft | 464 kts | 34° |
| 2026-05-04 16:39 | 7.30275 | 107.00929 | 34931 ft | 464 kts | 34° |
| 2026-05-04 16:40 | 7.41068 | 107.08035 | 34930 ft | 465 kts | 34° |
| 2026-05-04 16:41 | 7.54563 | 107.16940 | 34930 ft | 465 kts | 34° |
| 2026-05-04 16:43 | 7.68050 | 107.25833 | 34930 ft | 462 kts | 34° |
| 2026-05-04 16:43 | 7.76140 | 107.31175 | 34945 ft | 462 kts | 34° |
| 2026-05-04 16:45 | 7.92276 | 107.41836 | 34943 ft | 461 kts | 34° |
| 2026-05-04 16:46 | 8.05746 | 107.50738 | 34941 ft | 463 kts | 34° |
| 2026-05-04 16:47 | 8.16520 | 107.57855 | 34939 ft | 462 kts | 34° |
| 2026-05-04 16:48 | 8.27298 | 107.64998 | 34935 ft | 463 kts | 35° |
| 2026-05-04 16:49 | 8.38052 | 107.72145 | 34938 ft | 463 kts | 34° |
| 2026-05-04 16:50 | 8.48822 | 107.79265 | 34922 ft | 463 kts | 34° |
| 2026-05-04 16:51 | 8.56886 | 107.84625 | 34921 ft | 462 kts | 34° |
| 2026-05-04 16:52 | 8.67653 | 107.91774 | 34921 ft | 462 kts | 34° |
| 2026-05-04 16:53 | 8.75721 | 107.97132 | 34920 ft | 464 kts | 34° |
| 2026-05-04 16:54 | 8.86475 | 108.04274 | 34918 ft | 460 kts | 34° |
| 2026-05-04 16:55 | 9.02554 | 108.14977 | 34920 ft | 460 kts | 34° |
| 2026-05-04 16:56 | 9.15923 | 108.23876 | 34920 ft | 460 kts | 34° |
| 2026-05-04 16:57 | 9.23052 | 108.28629 | 34919 ft | 460 kts | 34° |
| 2026-05-04 16:58 | 9.33739 | 108.35756 | 34929 ft | 459 kts | 34° |
| 2026-05-04 17:00 | 9.49773 | 108.46448 | 34931 ft | 459 kts | 33° |
| 2026-05-04 17:01 | 9.63147 | 108.55367 | 34930 ft | 459 kts | 33° |
| 2026-05-04 17:02 | 9.73836 | 108.62513 | 34929 ft | 460 kts | 33° |
| 2026-05-04 17:03 | 9.81851 | 108.67875 | 34929 ft | 459 kts | 33° |
| 2026-05-04 17:03 | 9.89848 | 108.73225 | 34935 ft | 459 kts | 34° |
| 2026-05-04 17:04 | 10.00506 | 108.80363 | 34931 ft | 459 kts | 33° |
| 2026-05-04 17:05 | 10.11132 | 108.87483 | 34946 ft | 460 kts | 33° |
| 2026-05-04 17:06 | 10.19142 | 108.92847 | 34941 ft | 459 kts | 33° |
| 2026-05-04 17:07 | 10.26246 | 108.97603 | 34937 ft | 459 kts | 33° |
| 2026-05-04 17:07 | 10.32469 | 109.01774 | 34933 ft | 458 kts | 33° |
| 2026-05-04 17:08 | 10.40455 | 109.07135 | 34940 ft | 459 kts | 33° |
| 2026-05-04 17:09 | 10.45781 | 109.10707 | 34936 ft | 459 kts | 33° |
| 2026-05-04 17:09 | 10.51108 | 109.14282 | 34929 ft | 458 kts | 33° |
| 2026-05-04 17:10 | 10.64383 | 109.23203 | 34930 ft | 458 kts | 33° |
| 2026-05-04 17:11 | 10.69714 | 109.26788 | 34935 ft | 459 kts | 33° |
| 2026-05-04 17:12 | 10.77709 | 109.32169 | 34937 ft | 459 kts | 33° |
| 2026-05-04 17:13 | 10.91042 | 109.41145 | 34929 ft | 460 kts | 33° |
| 2026-05-04 17:14 | 11.01711 | 109.48340 | 34930 ft | 461 kts | 33° |
| 2026-05-04 17:15 | 11.09726 | 109.53741 | 34931 ft | 462 kts | 32° |
| 2026-05-04 17:16 | 11.20502 | 109.60850 | 34930 ft | 462 kts | 32° |
| 2026-05-04 17:17 | 11.31261 | 109.67941 | 34931 ft | 463 kts | 32° |
| 2026-05-04 17:18 | 11.42060 | 109.75106 | 34929 ft | 463 kts | 32° |
| 2026-05-04 17:19 | 11.52902 | 109.82250 | 34930 ft | 464 kts | 32° |
| 2026-05-04 17:20 | 11.63750 | 109.89426 | 34931 ft | 465 kts | 32° |
| 2026-05-04 17:20 | 11.71908 | 109.94815 | 34931 ft | 466 kts | 31° |
| 2026-05-04 17:21 | 11.82783 | 110.02022 | 34930 ft | 466 kts | 31° |
| 2026-05-04 17:22 | 11.88210 | 110.05622 | 34931 ft | 465 kts | 31° |
| 2026-05-04 17:23 | 11.99072 | 110.12830 | 34929 ft | 465 kts | 31° |
| 2026-05-04 17:24 | 12.07176 | 110.18212 | 34937 ft | 465 kts | 32° |
| 2026-05-04 17:25 | 12.18036 | 110.25431 | 34938 ft | 465 kts | 31° |
| 2026-05-04 17:26 | 12.28903 | 110.32651 | 34940 ft | 466 kts | 31° |
| 2026-05-04 17:27 | 12.42406 | 110.41827 | 34936 ft | 466 kts | 33° |
| 2026-05-04 17:28 | 12.53138 | 110.49316 | 34942 ft | 466 kts | 33° |
| 2026-05-04 17:29 | 12.69240 | 110.60559 | 34939 ft | 468 kts | 33° |
| 2026-05-04 17:31 | 12.82669 | 110.69946 | 34940 ft | 467 kts | 33° |
| 2026-05-04 17:32 | 12.96109 | 110.79354 | 34941 ft | 468 kts | 33° |
| 2026-05-04 17:33 | 13.06875 | 110.86904 | 34949 ft | 469 kts | 33° |
| 2026-05-04 17:34 | 13.17648 | 110.94465 | 34952 ft | 470 kts | 33° |
| 2026-05-04 17:35 | 13.31122 | 111.03933 | 34952 ft | 470 kts | 33° |
| 2026-05-04 17:36 | 13.36482 | 111.07700 | 34949 ft | 469 kts | 33° |
| 2026-05-04 17:36 | 13.41872 | 111.11489 | 34952 ft | 469 kts | 33° |
| 2026-05-04 17:37 | 13.47269 | 111.15290 | 34953 ft | 470 kts | 33° |
| 2026-05-04 17:37 | 13.52670 | 111.19082 | 34952 ft | 471 kts | 33° |
| 2026-05-04 17:38 | 13.58061 | 111.22891 | 34947 ft | 471 kts | 33° |
| 2026-05-04 17:38 | 13.63455 | 111.26696 | 34957 ft | 470 kts | 33° |
| 2026-05-04 17:39 | 13.71542 | 111.32402 | 34959 ft | 470 kts | 33° |
| 2026-05-04 17:39 | 13.76932 | 111.36208 | 34961 ft | 470 kts | 33° |
| 2026-05-04 17:40 | 13.82317 | 111.40014 | 34958 ft | 470 kts | 33° |
| 2026-05-04 17:40 | 13.87711 | 111.43825 | 34963 ft | 469 kts | 33° |
| 2026-05-04 17:41 | 13.93101 | 111.47629 | 34960 ft | 469 kts | 33° |
| 2026-05-04 17:41 | 13.98486 | 111.51446 | 34964 ft | 470 kts | 33° |
| 2026-05-04 17:42 | 14.03882 | 111.55241 | 34960 ft | 471 kts | 33° |
| 2026-05-04 17:42 | 14.09298 | 111.59052 | 34958 ft | 470 kts | 33° |
| 2026-05-04 17:43 | 14.14707 | 111.62856 | 34958 ft | 470 kts | 33° |
| 2026-05-04 17:43 | 14.20117 | 111.66666 | 34958 ft | 470 kts | 33° |
| 2026-05-04 17:44 | 14.25519 | 111.70487 | 34961 ft | 470 kts | 33° |
| 2026-05-04 17:44 | 14.30925 | 111.74291 | 34960 ft | 470 kts | 33° |
| 2026-05-04 17:45 | 14.36324 | 111.78108 | 34963 ft | 471 kts | 33° |
| 2026-05-04 17:45 | 14.41728 | 111.81922 | 34964 ft | 472 kts | 33° |
| 2026-05-04 17:46 | 14.47139 | 111.85755 | 34963 ft | 472 kts | 33° |
| 2026-05-04 17:46 | 14.51638 | 111.88933 | 34970 ft | 472 kts | 33° |
| 2026-05-04 17:47 | 14.57049 | 111.92756 | 34969 ft | 472 kts | 33° |
| 2026-05-04 17:47 | 14.62465 | 111.96588 | 34968 ft | 472 kts | 33° |
| 2026-05-04 17:48 | 14.67879 | 112.00420 | 34970 ft | 472 kts | 33° |
| 2026-05-04 17:48 | 14.73303 | 112.04246 | 34969 ft | 472 kts | 33° |
| 2026-05-04 17:49 | 14.78729 | 112.08066 | 34970 ft | 472 kts | 33° |
| 2026-05-04 17:49 | 14.84156 | 112.11894 | 34971 ft | 473 kts | 32° |
| 2026-05-04 17:50 | 14.89595 | 112.15702 | 34970 ft | 473 kts | 32° |
| 2026-05-04 17:50 | 14.95041 | 112.19523 | 34970 ft | 473 kts | 32° |
| 2026-05-04 17:51 | 15.00489 | 112.23364 | 34970 ft | 474 kts | 32° |
| 2026-05-04 17:51 | 15.05942 | 112.27205 | 34970 ft | 475 kts | 32° |
| 2026-05-04 17:52 | 15.11402 | 112.31051 | 34971 ft | 475 kts | 32° |
| 2026-05-04 17:52 | 15.16866 | 112.34900 | 34970 ft | 475 kts | 32° |
| 2026-05-04 17:53 | 15.22292 | 112.38735 | 34970 ft | 475 kts | 32° |
| 2026-05-04 17:53 | 15.27757 | 112.42591 | 34969 ft | 476 kts | 32° |
| 2026-05-04 17:54 | 15.33227 | 112.46448 | 34970 ft | 476 kts | 32° |
| 2026-05-04 17:54 | 15.38698 | 112.50312 | 34970 ft | 476 kts | 32° |
| 2026-05-04 17:55 | 15.44171 | 112.54184 | 34970 ft | 476 kts | 32° |
| 2026-05-04 17:55 | 15.49642 | 112.58058 | 34971 ft | 476 kts | 32° |
| 2026-05-04 17:56 | 15.55113 | 112.61937 | 34970 ft | 476 kts | 32° |
| 2026-05-04 17:56 | 15.60591 | 112.65822 | 34970 ft | 477 kts | 32° |
| 2026-05-04 17:57 | 15.66062 | 112.69703 | 34971 ft | 477 kts | 32° |
| 2026-05-04 17:57 | 15.71535 | 112.73592 | 34969 ft | 477 kts | 32° |
| 2026-05-04 17:58 | 15.77001 | 112.77491 | 34970 ft | 477 kts | 32° |
| 2026-05-04 17:58 | 15.82473 | 112.81388 | 34979 ft | 476 kts | 32° |
| 2026-05-04 17:59 | 15.87949 | 112.85276 | 34980 ft | 477 kts | 32° |
| 2026-05-04 18:00 | 15.96156 | 112.91121 | 34981 ft | 477 kts | 32° |
| 2026-05-04 18:00 | 16.01635 | 112.95022 | 34982 ft | 477 kts | 32° |
| 2026-05-04 18:01 | 16.07139 | 112.98935 | 34980 ft | 481 kts | 32° |
| 2026-05-04 18:01 | 16.12651 | 113.02869 | 34986 ft | 481 kts | 32° |
| 2026-05-04 18:02 | 16.20861 | 113.08765 | 34999 ft | 480 kts | 32° |
| 2026-05-04 18:02 | 16.26374 | 113.12693 | 34993 ft | 481 kts | 32° |
| 2026-05-04 18:03 | 16.31887 | 113.16633 | 34994 ft | 480 kts | 32° |
| 2026-05-04 18:03 | 16.37383 | 113.20586 | 34992 ft | 480 kts | 32° |
| 2026-05-04 18:04 | 16.42897 | 113.24531 | 34988 ft | 480 kts | 32° |
| 2026-05-04 18:05 | 16.51168 | 113.30442 | 34994 ft | 481 kts | 32° |
| 2026-05-04 18:05 | 16.56680 | 113.34396 | 34987 ft | 481 kts | 32° |
| 2026-05-04 18:06 | 16.64951 | 113.40339 | 34987 ft | 482 kts | 32° |
| 2026-05-04 18:06 | 16.70465 | 113.44316 | 34987 ft | 482 kts | 33° |
| 2026-05-04 18:07 | 16.75978 | 113.48303 | 35000 ft | 482 kts | 32° |
| 2026-05-04 18:07 | 16.81501 | 113.52260 | 34988 ft | 482 kts | 32° |
| 2026-05-04 18:08 | 16.87024 | 113.56226 | 34995 ft | 482 kts | 32° |
| 2026-05-04 18:08 | 16.92551 | 113.60209 | 35003 ft | 483 kts | 32° |
| 2026-05-04 18:09 | 17.03593 | 113.68178 | 34985 ft | 482 kts | 32° |
| 2026-05-04 18:10 | 17.09141 | 113.72140 | 34987 ft | 482 kts | 31° |
| 2026-05-04 18:10 | 17.14699 | 113.76082 | 34987 ft | 483 kts | 31° |
| 2026-05-04 18:11 | 17.20259 | 113.80038 | 34988 ft | 483 kts | 31° |
| 2026-05-04 18:11 | 17.25819 | 113.84009 | 34999 ft | 484 kts | 31° |
| 2026-05-04 18:12 | 17.31378 | 113.87985 | 34989 ft | 485 kts | 31° |
| 2026-05-04 18:12 | 17.36908 | 113.91936 | 34993 ft | 485 kts | 31° |
| 2026-05-04 18:13 | 17.42517 | 113.95949 | 34987 ft | 485 kts | 31° |
| 2026-05-04 18:14 | 17.50846 | 114.01916 | 34999 ft | 486 kts | 31° |
| 2026-05-04 18:14 | 17.56431 | 114.05913 | 34998 ft | 486 kts | 31° |
| 2026-05-04 18:15 | 17.67607 | 114.13930 | 34988 ft | 487 kts | 31° |
| 2026-05-04 18:16 | 17.73199 | 114.17938 | 34999 ft | 487 kts | 31° |
| 2026-05-04 18:16 | 17.78785 | 114.21955 | 34995 ft | 487 kts | 31° |
| 2026-05-04 18:17 | 17.87164 | 114.27985 | 34994 ft | 487 kts | 31° |
| 2026-05-04 18:18 | 17.95550 | 114.34020 | 34997 ft | 487 kts | 31° |
| 2026-05-04 18:18 | 18.01138 | 114.38048 | 35001 ft | 487 kts | 31° |
| 2026-05-04 18:19 | 18.09521 | 114.44098 | 35002 ft | 488 kts | 31° |
| 2026-05-04 18:19 | 18.15072 | 114.48113 | 34996 ft | 488 kts | 31° |
| 2026-05-04 18:20 | 18.20666 | 114.52150 | 34998 ft | 487 kts | 30° |
| 2026-05-04 18:20 | 18.26737 | 114.55067 | 35006 ft | 477 kts | 10° |
| 2026-05-04 18:21 | 18.33204 | 114.56474 | 35001 ft | 474 kts | 6° |
| 2026-05-04 18:21 | 18.39681 | 114.57821 | 34999 ft | 474 kts | 7° |
| 2026-05-04 18:22 | 18.46153 | 114.59232 | 34987 ft | 475 kts | 7° |
| 2026-05-04 18:22 | 18.52627 | 114.60649 | 34998 ft | 476 kts | 7° |
| 2026-05-04 18:23 | 18.59108 | 114.62065 | 34986 ft | 476 kts | 7° |
| 2026-05-04 18:23 | 18.65592 | 114.63487 | 34991 ft | 476 kts | 7° |
| 2026-05-04 18:24 | 18.72076 | 114.64910 | 34996 ft | 476 kts | 7° |
| 2026-05-04 18:24 | 18.78559 | 114.66331 | 35000 ft | 476 kts | 7° |
| 2026-05-04 18:25 | 18.85033 | 114.67750 | 34988 ft | 475 kts | 7° |
| 2026-05-04 18:25 | 18.91504 | 114.69173 | 34988 ft | 475 kts | 7° |
| 2026-05-04 18:26 | 18.97984 | 114.70584 | 34989 ft | 474 kts | 5° |
| 2026-05-04 18:26 | 19.04489 | 114.70783 | 35006 ft | 465 kts | 350° |
| 2026-05-04 18:27 | 19.10875 | 114.70156 | 35001 ft | 464 kts | 350° |
| 2026-05-04 18:27 | 19.17312 | 114.69582 | 34998 ft | 465 kts | 350° |
| 2026-05-04 18:28 | 19.23760 | 114.69037 | 35002 ft | 465 kts | 351° |
| 2026-05-04 18:28 | 19.30198 | 114.68495 | 35001 ft | 464 kts | 350° |
| 2026-05-04 18:29 | 19.36630 | 114.67948 | 35003 ft | 464 kts | 350° |
| 2026-05-04 18:29 | 19.43070 | 114.67401 | 35002 ft | 464 kts | 350° |
| 2026-05-04 18:30 | 19.52716 | 114.66586 | 35003 ft | 464 kts | 350° |
| 2026-05-04 18:31 | 19.59154 | 114.66039 | 35001 ft | 464 kts | 350° |
| 2026-05-04 18:31 | 19.65588 | 114.65494 | 34996 ft | 464 kts | 350° |
| 2026-05-04 18:32 | 19.72010 | 114.64942 | 35005 ft | 463 kts | 350° |
| 2026-05-04 18:32 | 19.78437 | 114.64398 | 35010 ft | 463 kts | 350° |
| 2026-05-04 18:33 | 19.84860 | 114.63854 | 35014 ft | 463 kts | 350° |
| 2026-05-04 18:33 | 19.91282 | 114.63306 | 35007 ft | 463 kts | 350° |
| 2026-05-04 18:34 | 19.97702 | 114.62759 | 35006 ft | 463 kts | 350° |
| 2026-05-04 18:34 | 20.04127 | 114.62211 | 35014 ft | 463 kts | 349° |
| 2026-05-04 18:35 | 20.09468 | 114.61755 | 35010 ft | 464 kts | 349° |
| 2026-05-04 18:35 | 20.15900 | 114.61207 | 35006 ft | 463 kts | 349° |
| 2026-05-04 18:36 | 20.22328 | 114.60657 | 35016 ft | 464 kts | 349° |
| 2026-05-04 18:36 | 20.28755 | 114.60108 | 35010 ft | 463 kts | 349° |
| 2026-05-04 18:37 | 20.35178 | 114.59558 | 35007 ft | 463 kts | 349° |
| 2026-05-04 18:37 | 20.41613 | 114.59005 | 35009 ft | 463 kts | 349° |
| 2026-05-04 18:38 | 20.48039 | 114.58455 | 35014 ft | 463 kts | 349° |
| 2026-05-04 18:38 | 20.54435 | 114.57905 | 34722 ft | 459 kts | 349° |
| 2026-05-04 18:38 | 20.57623 | 114.57630 | 34419 ft | 461 kts | 349° |
| 2026-05-04 18:39 | 20.60825 | 114.57351 | 34157 ft | 462 kts | 349° |
| 2026-05-04 18:39 | 20.64036 | 114.57074 | 33906 ft | 464 kts | 349° |
| 2026-05-04 18:39 | 20.67256 | 114.56796 | 33654 ft | 465 kts | 349° |
| 2026-05-04 18:39 | 20.70484 | 114.56517 | 33295 ft | 464 kts | 349° |
| 2026-05-04 18:40 | 20.73694 | 114.56242 | 32675 ft | 462 kts | 349° |
| 2026-05-04 18:40 | 20.76901 | 114.55964 | 31957 ft | 463 kts | 349° |
| 2026-05-04 18:40 | 20.80123 | 114.55683 | 31216 ft | 465 kts | 349° |
| 2026-05-04 18:40 | 20.83349 | 114.55404 | 30485 ft | 466 kts | 349° |
| 2026-05-04 18:41 | 20.86615 | 114.55291 | 29703 ft | 472 kts | 354° |
| 2026-05-04 18:41 | 20.89909 | 114.55315 | 28870 ft | 475 kts | 355° |
| 2026-05-04 18:41 | 20.93217 | 114.55353 | 28034 ft | 477 kts | 355° |
| 2026-05-04 18:41 | 20.96543 | 114.55390 | 27182 ft | 479 kts | 355° |
| 2026-05-04 18:42 | 20.99882 | 114.55423 | 26301 ft | 481 kts | 355° |
| 2026-05-04 18:42 | 21.03229 | 114.55457 | 25422 ft | 481 kts | 356° |
| 2026-05-04 18:42 | 21.06578 | 114.55488 | 24616 ft | 481 kts | 356° |
| 2026-05-04 18:42 | 21.09912 | 114.55519 | 23838 ft | 479 kts | 356° |
| 2026-05-04 18:43 | 21.13233 | 114.55550 | 23077 ft | 476 kts | 356° |
| 2026-05-04 18:43 | 21.16539 | 114.55581 | 22374 ft | 473 kts | 356° |
| 2026-05-04 18:43 | 21.19820 | 114.55610 | 21717 ft | 470 kts | 356° |
| 2026-05-04 18:43 | 21.23081 | 114.55643 | 20992 ft | 468 kts | 356° |
| 2026-05-04 18:44 | 21.26287 | 114.55671 | 20263 ft | 466 kts | 356° |
| 2026-05-04 18:44 | 21.28472 | 114.55691 | 19778 ft | 464 kts | 356° |
| 2026-05-04 18:44 | 21.32731 | 114.55731 | 18855 ft | 460 kts | 356° |
| 2026-05-04 18:44 | 21.35917 | 114.55761 | 18170 ft | 456 kts | 356° |
| 2026-05-04 18:45 | 21.39076 | 114.55791 | 17512 ft | 452 kts | 356° |
| 2026-05-04 18:45 | 21.42211 | 114.55818 | 16912 ft | 447 kts | 357° |
| 2026-05-04 18:45 | 21.45303 | 114.55849 | 16328 ft | 442 kts | 357° |
| 2026-05-04 18:45 | 21.48350 | 114.55766 | 15747 ft | 434 kts | 350° |
| 2026-05-04 18:46 | 21.51256 | 114.55039 | 15154 ft | 426 kts | 339° |
| 2026-05-04 18:46 | 21.54058 | 114.54056 | 14577 ft | 422 kts | 338° |
| 2026-05-04 18:46 | 21.56834 | 114.53066 | 14005 ft | 419 kts | 338° |
| 2026-05-04 18:46 | 21.59593 | 114.52088 | 13387 ft | 416 kts | 338° |
| 2026-05-04 18:47 | 21.62173 | 114.50768 | 12825 ft | 404 kts | 323° |
| 2026-05-04 18:47 | 21.64186 | 114.48798 | 12471 ft | 381 kts | 308° |
| 2026-05-04 18:47 | 21.65847 | 114.46676 | 12183 ft | 362 kts | 307° |
| 2026-05-04 18:47 | 21.67442 | 114.44652 | 11887 ft | 346 kts | 308° |
| 2026-05-04 18:48 | 21.68998 | 114.42758 | 11624 ft | 330 kts | 309° |
| 2026-05-04 18:48 | 21.70507 | 114.40971 | 11384 ft | 316 kts | 309° |
| 2026-05-04 18:48 | 21.71962 | 114.39269 | 11140 ft | 302 kts | 309° |
| 2026-05-04 18:48 | 21.73360 | 114.37642 | 10869 ft | 292 kts | 309° |
| 2026-05-04 18:49 | 21.74728 | 114.36052 | 10583 ft | 287 kts | 310° |
| 2026-05-04 18:49 | 21.76077 | 114.34486 | 10289 ft | 284 kts | 310° |
| 2026-05-04 18:49 | 21.77419 | 114.32929 | 10035 ft | 282 kts | 310° |
| 2026-05-04 18:49 | 21.78744 | 114.31393 | 9781 ft | 279 kts | 310° |
| 2026-05-04 18:50 | 21.80055 | 114.29876 | 9546 ft | 276 kts | 310° |
| 2026-05-04 18:50 | 21.81352 | 114.28372 | 9314 ft | 272 kts | 310° |
| 2026-05-04 18:50 | 21.82601 | 114.26830 | 9122 ft | 287 kts | 303° |
| 2026-05-04 18:50 | 21.83686 | 114.25008 | 8982 ft | 290 kts | 299° |
| 2026-05-04 18:51 | 21.84725 | 114.23150 | 8853 ft | 290 kts | 299° |
| 2026-05-04 18:51 | 21.85766 | 114.21297 | 8724 ft | 290 kts | 299° |
| 2026-05-04 18:51 | 21.86814 | 114.19447 | 8601 ft | 289 kts | 299° |
| 2026-05-04 18:51 | 21.87858 | 114.17610 | 8471 ft | 288 kts | 300° |
| 2026-05-04 18:52 | 21.88908 | 114.15767 | 8351 ft | 288 kts | 300° |
| 2026-05-04 18:52 | 21.89955 | 114.13934 | 8227 ft | 287 kts | 300° |
| 2026-05-04 18:52 | 21.91002 | 114.12103 | 8098 ft | 287 kts | 300° |
| 2026-05-04 18:52 | 21.92050 | 114.10275 | 7975 ft | 286 kts | 300° |
| 2026-05-04 18:53 | 21.93092 | 114.08455 | 7850 ft | 286 kts | 300° |
| 2026-05-04 18:53 | 21.94133 | 114.06632 | 7723 ft | 285 kts | 300° |
| 2026-05-04 18:53 | 21.95171 | 114.04816 | 7598 ft | 285 kts | 300° |
| 2026-05-04 18:53 | 21.96204 | 114.03002 | 7471 ft | 284 kts | 300° |
| 2026-05-04 18:54 | 21.97239 | 114.01191 | 7348 ft | 284 kts | 300° |
| 2026-05-04 18:54 | 21.98272 | 113.99384 | 7224 ft | 283 kts | 300° |
| 2026-05-04 18:54 | 21.99302 | 113.97579 | 7095 ft | 283 kts | 300° |
| 2026-05-04 18:54 | 22.00331 | 113.95774 | 6969 ft | 282 kts | 300° |
| 2026-05-04 18:55 | 22.01357 | 113.93975 | 6843 ft | 281 kts | 300° |
| 2026-05-04 18:55 | 22.03396 | 113.90402 | 6411 ft | 278 kts | 300° |
| 2026-05-04 18:55 | 22.04404 | 113.88634 | 6128 ft | 276 kts | 300° |
| 2026-05-04 18:56 | 22.05399 | 113.86893 | 5903 ft | 268 kts | 300° |
| 2026-05-04 18:56 | 22.06360 | 113.85209 | 5725 ft | 259 kts | 300° |
| 2026-05-04 18:56 | 22.07293 | 113.83570 | 5402 ft | 255 kts | 301° |
| 2026-05-04 18:56 | 22.08221 | 113.81942 | 5052 ft | 255 kts | 301° |
| 2026-05-04 18:57 | 22.09148 | 113.80315 | 4849 ft | 256 kts | 301° |
| 2026-05-04 18:57 | 22.10085 | 113.78673 | 4659 ft | 257 kts | 303° |
| 2026-05-04 18:57 | 22.11263 | 113.77251 | 4430 ft | 254 kts | 328° |
| 2026-05-04 18:57 | 22.12827 | 113.76388 | 4161 ft | 252 kts | 338° |
| 2026-05-04 18:58 | 22.14403 | 113.75642 | 3946 ft | 242 kts | 339° |
| 2026-05-04 18:58 | 22.15909 | 113.74925 | 3751 ft | 231 kts | 339° |
| 2026-05-04 18:58 | 22.17336 | 113.74236 | 3550 ft | 220 kts | 340° |
| 2026-05-04 18:58 | 22.18716 | 113.73562 | 3446 ft | 215 kts | 340° |
| 2026-05-04 18:59 | 22.20010 | 113.72922 | 3504 ft | 197 kts | 340° |
| 2026-05-04 18:59 | 22.21258 | 113.72305 | 3538 ft | 197 kts | 340° |
| 2026-05-04 18:59 | 22.22504 | 113.71696 | 3455 ft | 196 kts | 343° |
| 2026-05-04 18:59 | 22.23795 | 113.71619 | 3312 ft | 183 kts | 25° |
| 2026-05-04 19:00 | 22.24815 | 113.72373 | 3188 ft | 177 kts | 41° |
| 2026-05-04 19:00 | 22.25783 | 113.73144 | 2999 ft | 174 kts | 40° |
| 2026-05-04 19:00 | 22.26758 | 113.73943 | 2790 ft | 173 kts | 45° |
| 2026-05-04 19:00 | 22.27537 | 113.74874 | 2581 ft | 163 kts | 57° |
| 2026-05-04 19:01 | 22.28071 | 113.75885 | 2401 ft | 150 kts | 66° |
| 2026-05-04 19:01 | 22.28480 | 113.76915 | 2213 ft | 150 kts | 70° |
| 2026-05-04 19:01 | 22.28850 | 113.77971 | 2013 ft | 151 kts | 71° |
| 2026-05-04 19:01 | 22.29201 | 113.79034 | 1828 ft | 149 kts | 72° |
| 2026-05-04 19:02 | 22.29540 | 113.80082 | 1630 ft | 141 kts | 72° |
| 2026-05-04 19:02 | 22.29840 | 113.81014 | 1424 ft | 128 kts | 73° |
| 2026-05-04 19:02 | 22.30131 | 113.81922 | 1253 ft | 128 kts | 74° |
| 2026-05-04 19:02 | 22.30423 | 113.82830 | 1086 ft | 128 kts | 74° |
| 2026-05-04 19:03 | 22.30714 | 113.83735 | 923 ft | 128 kts | 73° |
| 2026-05-04 19:03 | 22.31005 | 113.84644 | 747 ft | 128 kts | 74° |
| 2026-05-04 19:03 | 22.31295 | 113.85548 | 581 ft | 127 kts | 74° |
| 2026-05-04 19:03 | 22.31587 | 113.86455 | 413 ft | 129 kts | 74° |
| 2026-05-04 19:04 | 22.31881 | 113.87369 | 240 ft | 129 kts | 73° |
| 2026-05-04 19:04 | 22.32175 | 113.88284 | 68 ft | 130 kts | 73° |
| 2026-05-04 19:04 | 22.32456 | 113.89155 | 37 ft | 105 kts | 72° |
| 2026-05-04 19:04 | 22.32623 | 113.89682 | 37 ft | 44 kts | 71° |
| 2026-05-04 19:05 | 22.32699 | 113.89961 | 38 ft | 38 kts | 85° |
| 2026-05-04 19:05 | 22.32685 | 113.90151 | 38 ft | 20 kts | 100° |
| 2026-05-04 19:05 | 22.32659 | 113.90299 | 37 ft | 8 kts | 100° |
| 2026-05-04 19:05 | 22.32652 | 113.90339 | 37 ft | 6 kts | 104° |
| 2026-05-04 19:06 | 22.32643 | 113.90367 | 37 ft | 0 kts | 115° |
| 2026-05-04 19:06 | 22.32641 | 113.90369 | 37 ft | 0 kts | 128° |
| 2026-05-04 19:06 | 22.32627 | 113.90377 | 37 ft | 4 kts | 160° |
| 2026-05-04 19:06 | 22.32576 | 113.90393 | 37 ft | 10 kts | 165° |
| 2026-05-04 19:07 | 22.32501 | 113.90420 | 37 ft | 12 kts | 162° |
| 2026-05-04 19:07 | 22.32414 | 113.90452 | 37 ft | 14 kts | 163° |
| 2026-05-04 19:07 | 22.32316 | 113.90486 | 37 ft | 16 kts | 165° |
| 2026-05-04 19:07 | 22.32208 | 113.90524 | 37 ft | 17 kts | 158° |
| 2026-05-04 19:08 | 22.32093 | 113.90571 | 37 ft | 19 kts | 161° |
| 2026-05-04 19:08 | 22.31964 | 113.90616 | 37 ft | 20 kts | 161° |
| 2026-05-04 19:08 | 22.31848 | 113.90658 | 37 ft | 6 kts | 154° |
| 2026-05-04 19:08 | 22.31803 | 113.90679 | 38 ft | 8 kts | 160° |
| 2026-05-04 19:09 | 22.31743 | 113.90702 | 38 ft | 10 kts | 160° |
| 2026-05-04 19:09 | 22.31685 | 113.90751 | 38 ft | 12 kts | 104° |
| 2026-05-04 19:09 | 22.31705 | 113.90846 | 38 ft | 14 kts | 72° |
| 2026-05-04 19:09 | 22.31737 | 113.90953 | 38 ft | 16 kts | 71° |
| 2026-05-04 19:10 | 22.31775 | 113.91070 | 38 ft | 17 kts | 71° |
| 2026-05-04 19:10 | 22.31816 | 113.91199 | 38 ft | 19 kts | 71° |
| 2026-05-04 19:10 | 22.31862 | 113.91340 | 38 ft | 20 kts | 70° |
| 2026-05-04 19:10 | 22.31910 | 113.91488 | 38 ft | 22 kts | 70° |
| 2026-05-04 19:11 | 22.31962 | 113.91649 | 38 ft | 23 kts | 71° |
| 2026-05-04 19:11 | 22.32015 | 113.91816 | 38 ft | 25 kts | 70° |
| 2026-05-04 19:11 | 22.32073 | 113.91996 | 38 ft | 26 kts | 71° |
| 2026-05-04 19:11 | 22.32126 | 113.92163 | 38 ft | 23 kts | 70° |
| 2026-05-04 19:12 | 22.32179 | 113.92325 | 38 ft | 22 kts | 71° |
| 2026-05-04 19:12 | 22.32247 | 113.92535 | 38 ft | 5 kts | 71° |
| 2026-05-04 19:12 | 22.32260 | 113.92577 | 38 ft | 7 kts | 71° |
| 2026-05-04 19:13 | 22.32271 | 113.92635 | 38 ft | 9 kts | 103° |
| 2026-05-04 19:13 | 22.32220 | 113.92681 | 38 ft | 11 kts | 164° |
| 2026-05-04 19:13 | 22.32139 | 113.92707 | 38 ft | 13 kts | 162° |
| 2026-05-04 19:13 | 22.32044 | 113.92741 | 40 ft | 15 kts | 161° |
| 2026-05-04 19:14 | 22.31938 | 113.92781 | 37 ft | 17 kts | 160° |
| 2026-05-04 19:14 | 22.31830 | 113.92828 | 38 ft | 16 kts | 156° |
| 2026-05-04 19:14 | 22.31721 | 113.92873 | 37 ft | 18 kts | 162° |
| 2026-05-04 19:14 | 22.31639 | 113.92902 | 37 ft | 10 kts | 160° |
| 2026-05-04 19:15 | 22.31575 | 113.92928 | 37 ft | 9 kts | 149° |
| 2026-05-04 19:15 | 22.31552 | 113.92995 | 37 ft | 11 kts | 76° |
| 2026-05-04 19:15 | 22.31568 | 113.93047 | 37 ft | 3 kts | 71° |
| 2026-05-04 19:15 | 22.31577 | 113.93074 | 37 ft | 5 kts | 70° |
| 2026-05-04 19:16 | 22.31573 | 113.93113 | 37 ft | 7 kts | 145° |
| 2026-05-04 19:16 | 22.31530 | 113.93125 | 37 ft | 5 kts | 164° |
| 2026-05-04 19:16 | 22.31498 | 113.93136 | 37 ft | 4 kts | 161° |
| 2026-05-04 19:16 | 22.31493 | 113.93138 | 37 ft | 0 kts | 162° |
| 2026-05-04 19:17 | 22.31487 | 113.93140 | 37 ft | 0 kts | 162° |